sensor_id;sensor_type;location;lat;lon;timestamp;temperature;humidity
5870;DHT22;2961;47.702;9.410;2022-09-04T00:02:02;13.90;99.90
5870;DHT22;2961;47.702;9.410;2022-09-04T00:04:42;13.80;99.90
5870;DHT22;2961;47.702;9.410;2022-09-04T00:07:17;13.70;99.90
5870;DHT22;2961;47.702;9.410;2022-09-04T00:09:54;13.70;99.90
5870;DHT22;2961;47.702;9.410;2022-09-04T00:12:29;13.70;99.90
5870;DHT22;2961;47.702;9.410;2022-09-04T00:15:03;13.70;99.90
5870;DHT22;2961;47.702;9.410;2022-09-04T00:17:38;13.60;99.90
5870;DHT22;2961;47.702;9.410;2022-09-04T00:20:12;13.50;99.90
5870;DHT22;2961;47.702;9.410;2022-09-04T00:22:48;13.50;99.90
5870;DHT22;2961;47.702;9.410;2022-09-04T00:25:21;13.50;99.90
5870;DHT22;2961;47.702;9.410;2022-09-04T00:27:55;13.60;99.90
5870;DHT22;2961;47.702;9.410;2022-09-04T00:30:26;13.60;99.90
5870;DHT22;2961;47.702;9.410;2022-09-04T00:32:57;13.40;99.90
5870;DHT22;2961;47.702;9.410;2022-09-04T00:35:28;13.30;99.90
5870;DHT22;2961;47.702;9.410;2022-09-04T00:38:00;13.30;99.90
5870;DHT22;2961;47.702;9.410;2022-09-04T00:40:31;13.40;99.90
5870;DHT22;2961;47.702;9.410;2022-09-04T00:43:26;13.40;99.90
5870;DHT22;2961;47.702;9.410;2022-09-04T00:46:09;13.40;99.90
5870;DHT22;2961;47.702;9.410;2022-09-04T00:49:04;13.30;99.90
5870;DHT22;2961;47.702;9.410;2022-09-04T00:51:39;13.20;99.90
5870;DHT22;2961;47.702;9.410;2022-09-04T00:54:26;13.20;99.90
5870;DHT22;2961;47.702;9.410;2022-09-04T00:57:27;13.30;99.90
5870;DHT22;2961;47.702;9.410;2022-09-04T01:00:07;13.30;99.90
5870;DHT22;2961;47.702;9.410;2022-09-04T01:03:07;13.30;99.90
5870;DHT22;2961;47.702;9.410;2022-09-04T01:05:47;13.20;99.90
5870;DHT22;2961;47.702;9.410;2022-09-04T01:08:22;13.10;99.90
5870;DHT22;2961;47.702;9.410;2022-09-04T01:11:03;13.10;99.90
5870;DHT22;2961;47.702;9.410;2022-09-04T01:13:38;13.20;99.90
5870;DHT22;2961;47.702;9.410;2022-09-04T01:16:10;13.40;99.90
5870;DHT22;2961;47.702;9.410;2022-09-04T01:18:44;13.40;99.90
5870;DHT22;2961;47.702;9.410;2022-09-04T01:21:23;13.30;99.90
5870;DHT22;2961;47.702;9.410;2022-09-04T01:24:06;13.20;99.90
5870;DHT22;2961;47.702;9.410;2022-09-04T01:26:46;13.10;99.90
5870;DHT22;2961;47.702;9.410;2022-09-04T01:29:23;13.10;99.90
5870;DHT22;2961;47.702;9.410;2022-09-04T01:31:56;13.10;99.90
5870;DHT22;2961;47.702;9.410;2022-09-04T01:34:39;13.00;99.90
5870;DHT22;2961;47.702;9.410;2022-09-04T01:37:19;13.00;99.90
5870;DHT22;2961;47.702;9.410;2022-09-04T01:40:02;13.00;99.90
5870;DHT22;2961;47.702;9.410;2022-09-04T01:42:41;12.90;99.90
5870;DHT22;2961;47.702;9.410;2022-09-04T01:45:10;12.90;99.90
5870;DHT22;2961;47.702;9.410;2022-09-04T01:47:42;12.90;99.90
5870;DHT22;2961;47.702;9.410;2022-09-04T01:50:14;12.90;99.90
5870;DHT22;2961;47.702;9.410;2022-09-04T01:52:47;12.90;99.90
5870;DHT22;2961;47.702;9.410;2022-09-04T01:55:22;13.00;99.90
5870;DHT22;2961;47.702;9.410;2022-09-04T01:58:02;13.00;99.90
5870;DHT22;2961;47.702;9.410;2022-09-04T02:00:40;12.90;99.90
5870;DHT22;2961;47.702;9.410;2022-09-04T02:03:15;12.80;99.90
5870;DHT22;2961;47.702;9.410;2022-09-04T02:05:58;12.80;99.90
5870;DHT22;2961;47.702;9.410;2022-09-04T02:08:37;12.80;99.90
5870;DHT22;2961;47.702;9.410;2022-09-04T02:11:08;12.80;99.90
5870;DHT22;2961;47.702;9.410;2022-09-04T02:13:48;12.80;99.90
5870;DHT22;2961;47.702;9.410;2022-09-04T02:16:32;12.80;99.90
5870;DHT22;2961;47.702;9.410;2022-09-04T02:19:08;12.70;99.90
5870;DHT22;2961;47.702;9.410;2022-09-04T02:21:41;12.60;99.90
5870;DHT22;2961;47.702;9.410;2022-09-04T02:24:15;12.60;99.90
5870;DHT22;2961;47.702;9.410;2022-09-04T02:26:48;12.70;99.90
5870;DHT22;2961;47.702;9.410;2022-09-04T02:29:25;12.60;99.90
5870;DHT22;2961;47.702;9.410;2022-09-04T02:31:57;12.70;99.90
5870;DHT22;2961;47.702;9.410;2022-09-04T02:34:31;12.70;99.90
5870;DHT22;2961;47.702;9.410;2022-09-04T02:37:07;12.70;99.90
5870;DHT22;2961;47.702;9.410;2022-09-04T02:39:44;12.70;99.90
5870;DHT22;2961;47.702;9.410;2022-09-04T02:42:22;12.60;99.90
5870;DHT22;2961;47.702;9.410;2022-09-04T02:45:07;12.50;99.90
5870;DHT22;2961;47.702;9.410;2022-09-04T02:47:41;12.50;99.90
5870;DHT22;2961;47.702;9.410;2022-09-04T02:50:18;12.50;99.90
5870;DHT22;2961;47.702;9.410;2022-09-04T02:53:00;12.60;99.90
5870;DHT22;2961;47.702;9.410;2022-09-04T02:55:42;12.40;99.90
5870;DHT22;2961;47.702;9.410;2022-09-04T02:58:15;12.40;99.90
5870;DHT22;2961;47.702;9.410;2022-09-04T03:00:51;12.40;99.90
5870;DHT22;2961;47.702;9.410;2022-09-04T03:03:26;12.50;99.90
5870;DHT22;2961;47.702;9.410;2022-09-04T03:05:59;12.50;99.90
5870;DHT22;2961;47.702;9.410;2022-09-04T03:08:34;12.50;99.90
5870;DHT22;2961;47.702;9.410;2022-09-04T03:11:05;12.50;99.90
5870;DHT22;2961;47.702;9.410;2022-09-04T03:13:41;12.50;99.90
5870;DHT22;2961;47.702;9.410;2022-09-04T03:16:20;12.60;99.90
5870;DHT22;2961;47.702;9.410;2022-09-04T03:19:03;12.70;99.90
5870;DHT22;2961;47.702;9.410;2022-09-04T03:21:40;12.70;99.90
5870;DHT22;2961;47.702;9.410;2022-09-04T03:24:10;12.70;99.90
5870;DHT22;2961;47.702;9.410;2022-09-04T03:26:41;12.70;99.90
5870;DHT22;2961;47.702;9.410;2022-09-04T03:29:19;12.70;99.90
5870;DHT22;2961;47.702;9.410;2022-09-04T03:31:55;12.70;99.90
5870;DHT22;2961;47.702;9.410;2022-09-04T03:34:34;12.70;99.90
5870;DHT22;2961;47.702;9.410;2022-09-04T03:37:22;12.80;99.90
5870;DHT22;2961;47.702;9.410;2022-09-04T03:40:06;12.80;99.90
5870;DHT22;2961;47.702;9.410;2022-09-04T03:42:45;12.90;99.90
5870;DHT22;2961;47.702;9.410;2022-09-04T03:45:20;12.90;99.90
5870;DHT22;2961;47.702;9.410;2022-09-04T03:48:02;13.00;99.90
5870;DHT22;2961;47.702;9.410;2022-09-04T03:50:38;13.00;99.90
5870;DHT22;2961;47.702;9.410;2022-09-04T03:53:10;13.00;99.90
5870;DHT22;2961;47.702;9.410;2022-09-04T03:56:06;13.00;99.90
5870;DHT22;2961;47.702;9.410;2022-09-04T03:58:45;13.00;99.90
5870;DHT22;2961;47.702;9.410;2022-09-04T04:01:20;13.00;99.90
5870;DHT22;2961;47.702;9.410;2022-09-04T04:06:49;12.90;99.90
5870;DHT22;2961;47.702;9.410;2022-09-04T04:09:31;12.80;99.90
5870;DHT22;2961;47.702;9.410;2022-09-04T04:12:14;12.80;99.90
5870;DHT22;2961;47.702;9.410;2022-09-04T04:14:56;12.80;99.90
5870;DHT22;2961;47.702;9.410;2022-09-04T04:17:50;12.70;99.90
5870;DHT22;2961;47.702;9.410;2022-09-04T04:20:31;12.60;99.90
5870;DHT22;2961;47.702;9.410;2022-09-04T04:23:39;12.50;99.90
5870;DHT22;2961;47.702;9.410;2022-09-04T04:26:14;12.50;99.90
5870;DHT22;2961;47.702;9.410;2022-09-04T04:29:02;12.50;99.90
5870;DHT22;2961;47.702;9.410;2022-09-04T04:31:43;12.50;99.90
5870;DHT22;2961;47.702;9.410;2022-09-04T04:34:22;12.50;99.90
5870;DHT22;2961;47.702;9.410;2022-09-04T04:36:55;12.50;99.90
5870;DHT22;2961;47.702;9.410;2022-09-04T04:39:31;12.40;99.90
5870;DHT22;2961;47.702;9.410;2022-09-04T04:42:13;12.40;99.90
5870;DHT22;2961;47.702;9.410;2022-09-04T04:44:55;12.40;99.90
5870;DHT22;2961;47.702;9.410;2022-09-04T04:50:47;12.50;99.90
5870;DHT22;2961;47.702;9.410;2022-09-04T04:53:23;12.40;99.90
5870;DHT22;2961;47.702;9.410;2022-09-04T04:55:57;12.40;99.90
5870;DHT22;2961;47.702;9.410;2022-09-04T04:58:51;12.40;99.90
5870;DHT22;2961;47.702;9.410;2022-09-04T05:01:34;12.30;99.90
5870;DHT22;2961;47.702;9.410;2022-09-04T05:04:12;12.40;99.90
5870;DHT22;2961;47.702;9.410;2022-09-04T05:06:46;12.40;99.90
5870;DHT22;2961;47.702;9.410;2022-09-04T05:09:23;12.50;99.90
5870;DHT22;2961;47.702;9.410;2022-09-04T05:11:54;12.50;99.90
5870;DHT22;2961;47.702;9.410;2022-09-04T05:14:38;12.60;99.90
5870;DHT22;2961;47.702;9.410;2022-09-04T05:17:16;12.70;99.90
5870;DHT22;2961;47.702;9.410;2022-09-04T05:19:51;12.80;99.90
5870;DHT22;2961;47.702;9.410;2022-09-04T05:22:27;12.90;99.90
5870;DHT22;2961;47.702;9.410;2022-09-04T05:25:06;12.90;99.90
5870;DHT22;2961;47.702;9.410;2022-09-04T05:28:00;13.00;99.90
5870;DHT22;2961;47.702;9.410;2022-09-04T05:30:34;13.00;99.90
5870;DHT22;2961;47.702;9.410;2022-09-04T05:33:12;13.00;99.90
5870;DHT22;2961;47.702;9.410;2022-09-04T05:35:47;13.10;99.90
5870;DHT22;2961;47.702;9.410;2022-09-04T05:38:20;13.20;99.90
5870;DHT22;2961;47.702;9.410;2022-09-04T05:41:03;13.20;99.90
5870;DHT22;2961;47.702;9.410;2022-09-04T05:43:43;13.30;99.90
5870;DHT22;2961;47.702;9.410;2022-09-04T05:46:18;13.40;99.90
5870;DHT22;2961;47.702;9.410;2022-09-04T05:48:59;13.50;99.90
5870;DHT22;2961;47.702;9.410;2022-09-04T05:51:42;13.50;99.90
5870;DHT22;2961;47.702;9.410;2022-09-04T05:57:43;13.70;99.90
5870;DHT22;2961;47.702;9.410;2022-09-04T06:00:14;13.80;99.90
5870;DHT22;2961;47.702;9.410;2022-09-04T06:05:43;14.00;99.90
5870;DHT22;2961;47.702;9.410;2022-09-04T06:08:23;14.30;99.90
5870;DHT22;2961;47.702;9.410;2022-09-04T06:11:00;14.50;99.90
5870;DHT22;2961;47.702;9.410;2022-09-04T06:13:55;14.80;99.90
5870;DHT22;2961;47.702;9.410;2022-09-04T06:19:36;15.10;99.90
5870;DHT22;2961;47.702;9.410;2022-09-04T06:22:21;15.20;99.90
5870;DHT22;2961;47.702;9.410;2022-09-04T06:25:15;15.30;99.90
5870;DHT22;2961;47.702;9.410;2022-09-04T06:27:56;15.40;99.90
5870;DHT22;2961;47.702;9.410;2022-09-04T06:30:34;15.50;99.90
5870;DHT22;2961;47.702;9.410;2022-09-04T06:33:13;15.60;99.90
5870;DHT22;2961;47.702;9.410;2022-09-04T06:35:58;15.80;99.90
5870;DHT22;2961;47.702;9.410;2022-09-04T06:38:39;16.00;99.90
5870;DHT22;2961;47.702;9.410;2022-09-04T06:41:22;16.00;99.90
5870;DHT22;2961;47.702;9.410;2022-09-04T06:43:54;16.20;99.90
5870;DHT22;2961;47.702;9.410;2022-09-04T06:46:33;16.40;99.90
5870;DHT22;2961;47.702;9.410;2022-09-04T06:49:23;16.40;99.90
5870;DHT22;2961;47.702;9.410;2022-09-04T06:52:08;16.60;99.90
5870;DHT22;2961;47.702;9.410;2022-09-04T06:54:48;16.60;99.90
5870;DHT22;2961;47.702;9.410;2022-09-04T06:57:34;16.80;99.90
5870;DHT22;2961;47.702;9.410;2022-09-04T07:00:05;16.90;99.90
5870;DHT22;2961;47.702;9.410;2022-09-04T07:03:02;17.00;99.90
5870;DHT22;2961;47.702;9.410;2022-09-04T07:05:43;17.20;99.90
5870;DHT22;2961;47.702;9.410;2022-09-04T07:08:17;17.20;99.90
5870;DHT22;2961;47.702;9.410;2022-09-04T07:10:58;17.20;99.90
5870;DHT22;2961;47.702;9.410;2022-09-04T07:14:10;17.40;99.90
5870;DHT22;2961;47.702;9.410;2022-09-04T07:16:45;17.60;99.90
5870;DHT22;2961;47.702;9.410;2022-09-04T07:19:39;17.90;99.90
5870;DHT22;2961;47.702;9.410;2022-09-04T07:22:40;18.10;99.90
5870;DHT22;2961;47.702;9.410;2022-09-04T07:25:14;18.50;99.90
5870;DHT22;2961;47.702;9.410;2022-09-04T07:28:02;19.10;99.90
5870;DHT22;2961;47.702;9.410;2022-09-04T07:30:39;19.70;99.90
5870;DHT22;2961;47.702;9.410;2022-09-04T07:33:11;20.50;99.90
5870;DHT22;2961;47.702;9.410;2022-09-04T07:35:49;21.20;99.90
5870;DHT22;2961;47.702;9.410;2022-09-04T07:38:25;22.40;99.90
5870;DHT22;2961;47.702;9.410;2022-09-04T07:40:58;23.20;99.90
5870;DHT22;2961;47.702;9.410;2022-09-04T07:43:32;23.90;99.90
5870;DHT22;2961;47.702;9.410;2022-09-04T07:46:12;24.90;99.90
5870;DHT22;2961;47.702;9.410;2022-09-04T07:48:43;25.80;99.90
5870;DHT22;2961;47.702;9.410;2022-09-04T07:51:15;26.20;99.90
5870;DHT22;2961;47.702;9.410;2022-09-04T07:54:01;25.70;99.90
5870;DHT22;2961;47.702;9.410;2022-09-04T07:56:44;24.70;99.90
5870;DHT22;2961;47.702;9.410;2022-09-04T07:59:37;23.50;99.90
5870;DHT22;2961;47.702;9.410;2022-09-04T08:02:20;22.50;99.90
5870;DHT22;2961;47.702;9.410;2022-09-04T08:11:17;22.60;99.90
5870;DHT22;2961;47.702;9.410;2022-09-04T08:14:18;23.10;99.90
5870;DHT22;2961;47.702;9.410;2022-09-04T08:16:56;23.20;99.90
5870;DHT22;2961;47.702;9.410;2022-09-04T08:19:36;22.80;99.90
5870;DHT22;2961;47.702;9.410;2022-09-04T08:22:05;22.10;99.90
5870;DHT22;2961;47.702;9.410;2022-09-04T08:25:02;21.70;99.90
5870;DHT22;2961;47.702;9.410;2022-09-04T08:27:56;21.40;99.90
5870;DHT22;2961;47.702;9.410;2022-09-04T08:30:29;21.20;99.90
5870;DHT22;2961;47.702;9.410;2022-09-04T08:35:59;21.30;99.90
5870;DHT22;2961;47.702;9.410;2022-09-04T08:38:37;21.30;99.90
5870;DHT22;2961;47.702;9.410;2022-09-04T08:41:48;21.20;99.90
5870;DHT22;2961;47.702;9.410;2022-09-04T08:47:43;20.70;99.90
5870;DHT22;2961;47.702;9.410;2022-09-04T08:53:44;20.30;99.90
5870;DHT22;2961;47.702;9.410;2022-09-04T08:56:26;20.20;99.90
5870;DHT22;2961;47.702;9.410;2022-09-04T08:59:23;20.10;99.90
5870;DHT22;2961;47.702;9.410;2022-09-04T09:02:19;20.00;99.90
5870;DHT22;2961;47.702;9.410;2022-09-04T09:08:12;20.10;99.90
5870;DHT22;2961;47.702;9.410;2022-09-04T09:11:09;20.20;99.90
5870;DHT22;2961;47.702;9.410;2022-09-04T09:13:54;20.20;99.90
5870;DHT22;2961;47.702;9.410;2022-09-04T09:16:40;20.20;99.90
5870;DHT22;2961;47.702;9.410;2022-09-04T09:19:10;20.30;99.90
5870;DHT22;2961;47.702;9.410;2022-09-04T09:21:45;20.40;99.90
5870;DHT22;2961;47.702;9.410;2022-09-04T09:24:45;20.50;99.90
5870;DHT22;2961;47.702;9.410;2022-09-04T09:27:34;20.60;99.90
5870;DHT22;2961;47.702;9.410;2022-09-04T09:30:08;20.60;99.90
5870;DHT22;2961;47.702;9.410;2022-09-04T09:33:18;20.60;99.90
5870;DHT22;2961;47.702;9.410;2022-09-04T09:39:21;20.70;99.90
5870;DHT22;2961;47.702;9.410;2022-09-04T09:45:45;20.90;99.90
5870;DHT22;2961;47.702;9.410;2022-09-04T09:51:37;21.00;99.90
5870;DHT22;2961;47.702;9.410;2022-09-04T09:57:35;21.00;99.90
5870;DHT22;2961;47.702;9.410;2022-09-04T10:00:11;21.20;99.90
5870;DHT22;2961;47.702;9.410;2022-09-04T10:12:05;21.70;99.90
5870;DHT22;2961;47.702;9.410;2022-09-04T10:18:13;21.70;99.90
5870;DHT22;2961;47.702;9.410;2022-09-04T10:21:17;21.80;99.90
5870;DHT22;2961;47.702;9.410;2022-09-04T10:24:29;21.80;99.90
5870;DHT22;2961;47.702;9.410;2022-09-04T10:27:46;21.80;99.90
5870;DHT22;2961;47.702;9.410;2022-09-04T10:30:19;21.80;99.90
5870;DHT22;2961;47.702;9.410;2022-09-04T10:33:05;21.80;99.90
5870;DHT22;2961;47.702;9.410;2022-09-04T10:35:42;21.90;99.90
5870;DHT22;2961;47.702;9.410;2022-09-04T10:38:25;22.00;99.90
5870;DHT22;2961;47.702;9.410;2022-09-04T10:41:29;22.00;99.90
5870;DHT22;2961;47.702;9.410;2022-09-04T10:47:00;22.10;99.90
5870;DHT22;2961;47.702;9.410;2022-09-04T10:49:39;22.10;99.90
5870;DHT22;2961;47.702;9.410;2022-09-04T10:52:20;22.10;99.90
5870;DHT22;2961;47.702;9.410;2022-09-04T10:55:10;22.20;99.90
5870;DHT22;2961;47.702;9.410;2022-09-04T10:57:53;22.30;99.90
5870;DHT22;2961;47.702;9.410;2022-09-04T11:00:30;22.30;99.90
5870;DHT22;2961;47.702;9.410;2022-09-04T11:03:14;22.30;99.90
5870;DHT22;2961;47.702;9.410;2022-09-04T11:09:03;22.40;99.90
5870;DHT22;2961;47.702;9.410;2022-09-04T11:11:56;22.40;99.90
5870;DHT22;2961;47.702;9.410;2022-09-04T11:17:43;22.60;99.90
5870;DHT22;2961;47.702;9.410;2022-09-04T11:26:59;22.80;99.90
5870;DHT22;2961;47.702;9.410;2022-09-04T11:29:57;22.70;99.90
5870;DHT22;2961;47.702;9.410;2022-09-04T11:35:56;22.80;99.90
5870;DHT22;2961;47.702;9.410;2022-09-04T11:38:50;22.80;99.90
5870;DHT22;2961;47.702;9.410;2022-09-04T11:41:35;22.90;99.90
5870;DHT22;2961;47.702;9.410;2022-09-04T11:50:43;23.10;99.90
5870;DHT22;2961;47.702;9.410;2022-09-04T11:53:40;23.20;99.90
5870;DHT22;2961;47.702;9.410;2022-09-04T11:56:26;23.20;99.90
5870;DHT22;2961;47.702;9.410;2022-09-04T11:59:19;23.20;99.90
5870;DHT22;2961;47.702;9.410;2022-09-04T12:02:17;23.20;99.90
5870;DHT22;2961;47.702;9.410;2022-09-04T12:05:02;23.20;99.90
5870;DHT22;2961;47.702;9.410;2022-09-04T12:07:43;23.30;99.90
5870;DHT22;2961;47.702;9.410;2022-09-04T12:10:22;23.40;99.90
5870;DHT22;2961;47.702;9.410;2022-09-04T12:16:20;23.40;99.90
5870;DHT22;2961;47.702;9.410;2022-09-04T12:19:26;23.40;99.90
5870;DHT22;2961;47.702;9.410;2022-09-04T12:22:43;23.50;99.90
5870;DHT22;2961;47.702;9.410;2022-09-04T12:25:45;23.70;99.90
5870;DHT22;2961;47.702;9.410;2022-09-04T12:28:41;23.70;99.90
5870;DHT22;2961;47.702;9.410;2022-09-04T12:31:27;23.70;99.90
5870;DHT22;2961;47.702;9.410;2022-09-04T12:34:10;23.70;99.90
5870;DHT22;2961;47.702;9.410;2022-09-04T12:42:53;23.80;99.90
5870;DHT22;2961;47.702;9.410;2022-09-04T12:45:28;23.90;99.90
5870;DHT22;2961;47.702;9.410;2022-09-04T12:48:05;23.90;99.90
5870;DHT22;2961;47.702;9.410;2022-09-04T12:50:39;24.00;99.90
5870;DHT22;2961;47.702;9.410;2022-09-04T12:53:27;24.00;99.90
5870;DHT22;2961;47.702;9.410;2022-09-04T12:56:04;24.00;99.90
5870;DHT22;2961;47.702;9.410;2022-09-04T12:58:53;24.00;99.90
5870;DHT22;2961;47.702;9.410;2022-09-04T13:01:32;24.10;99.90
5870;DHT22;2961;47.702;9.410;2022-09-04T13:04:12;24.00;99.90
5870;DHT22;2961;47.702;9.410;2022-09-04T13:06:50;24.10;99.90
5870;DHT22;2961;47.702;9.410;2022-09-04T13:09:24;24.10;99.90
5870;DHT22;2961;47.702;9.410;2022-09-04T13:12:05;24.10;99.90
5870;DHT22;2961;47.702;9.410;2022-09-04T13:14:54;24.20;99.90
5870;DHT22;2961;47.702;9.410;2022-09-04T13:17:29;24.30;99.90
5870;DHT22;2961;47.702;9.410;2022-09-04T13:20:05;24.40;99.90
5870;DHT22;2961;47.702;9.410;2022-09-04T13:22:44;24.60;99.90
5870;DHT22;2961;47.702;9.410;2022-09-04T13:25:16;24.80;99.90
5870;DHT22;2961;47.702;9.410;2022-09-04T13:28:01;24.90;99.90
5870;DHT22;2961;47.702;9.410;2022-09-04T13:30:31;25.00;99.90
5870;DHT22;2961;47.702;9.410;2022-09-04T13:33:13;25.10;99.90
5870;DHT22;2961;47.702;9.410;2022-09-04T13:35:54;25.10;99.90
5870;DHT22;2961;47.702;9.410;2022-09-04T13:41:52;25.10;99.90
5870;DHT22;2961;47.702;9.410;2022-09-04T13:44:49;25.00;99.90
5870;DHT22;2961;47.702;9.410;2022-09-04T13:47:21;24.90;99.90
5870;DHT22;2961;47.702;9.410;2022-09-04T13:49:52;24.90;99.90
5870;DHT22;2961;47.702;9.410;2022-09-04T13:52:25;24.80;99.90
5870;DHT22;2961;47.702;9.410;2022-09-04T13:54:58;24.80;99.90
5870;DHT22;2961;47.702;9.410;2022-09-04T13:57:31;24.80;99.90
5870;DHT22;2961;47.702;9.410;2022-09-04T14:00:02;24.80;99.90
5870;DHT22;2961;47.702;9.410;2022-09-04T14:02:34;24.70;99.90
5870;DHT22;2961;47.702;9.410;2022-09-04T14:05:06;24.70;99.90
5870;DHT22;2961;47.702;9.410;2022-09-04T14:07:38;24.60;99.90
5870;DHT22;2961;47.702;9.410;2022-09-04T14:10:09;24.70;99.90
5870;DHT22;2961;47.702;9.410;2022-09-04T14:12:50;24.70;99.90
5870;DHT22;2961;47.702;9.410;2022-09-04T14:15:50;24.70;99.90
5870;DHT22;2961;47.702;9.410;2022-09-04T14:18:39;24.70;99.90
5870;DHT22;2961;47.702;9.410;2022-09-04T14:21:12;24.70;99.90
5870;DHT22;2961;47.702;9.410;2022-09-04T14:23:47;24.70;99.90
5870;DHT22;2961;47.702;9.410;2022-09-04T14:26:27;24.70;99.90
5870;DHT22;2961;47.702;9.410;2022-09-04T14:29:04;24.70;99.90
5870;DHT22;2961;47.702;9.410;2022-09-04T14:31:39;24.70;99.90
5870;DHT22;2961;47.702;9.410;2022-09-04T14:34:15;24.60;99.90
5870;DHT22;2961;47.702;9.410;2022-09-04T14:36:53;24.60;99.90
5870;DHT22;2961;47.702;9.410;2022-09-04T14:39:26;24.60;99.90
5870;DHT22;2961;47.702;9.410;2022-09-04T14:42:14;24.60;99.90
5870;DHT22;2961;47.702;9.410;2022-09-04T14:44:55;24.60;99.40
5870;DHT22;2961;47.702;9.410;2022-09-04T14:47:34;24.60;99.70
5870;DHT22;2961;47.702;9.410;2022-09-04T14:50:07;24.60;98.90
5870;DHT22;2961;47.702;9.410;2022-09-04T14:52:41;24.60;97.90
5870;DHT22;2961;47.702;9.410;2022-09-04T14:55:14;24.60;97.40
5870;DHT22;2961;47.702;9.410;2022-09-04T14:57:47;24.60;98.10
5870;DHT22;2961;47.702;9.410;2022-09-04T15:00:17;24.60;99.00
5870;DHT22;2961;47.702;9.410;2022-09-04T15:02:50;24.60;98.40
5870;DHT22;2961;47.702;9.410;2022-09-04T15:05:22;24.60;98.20
5870;DHT22;2961;47.702;9.410;2022-09-04T15:07:55;24.60;98.90
5870;DHT22;2961;47.702;9.410;2022-09-04T15:10:27;24.60;98.80
5870;DHT22;2961;47.702;9.410;2022-09-04T15:13:14;24.50;99.70
5870;DHT22;2961;47.702;9.410;2022-09-04T15:15:46;24.60;99.90
5870;DHT22;2961;47.702;9.410;2022-09-04T15:18:23;24.60;99.70
5870;DHT22;2961;47.702;9.410;2022-09-04T15:20:56;24.60;98.00
5870;DHT22;2961;47.702;9.410;2022-09-04T15:23:29;24.60;99.50
5870;DHT22;2961;47.702;9.410;2022-09-04T15:26:02;24.60;99.90
5870;DHT22;2961;47.702;9.410;2022-09-04T15:28:38;24.50;99.00
5870;DHT22;2961;47.702;9.410;2022-09-04T15:31:11;24.50;99.90
5870;DHT22;2961;47.702;9.410;2022-09-04T15:33:44;24.40;99.90
5870;DHT22;2961;47.702;9.410;2022-09-04T15:36:15;24.40;99.10
5870;DHT22;2961;47.702;9.410;2022-09-04T15:38:46;24.40;98.90
5870;DHT22;2961;47.702;9.410;2022-09-04T15:41:20;24.40;99.90
5870;DHT22;2961;47.702;9.410;2022-09-04T15:43:50;24.50;99.80
5870;DHT22;2961;47.702;9.410;2022-09-04T15:46:25;24.50;99.90
5870;DHT22;2961;47.702;9.410;2022-09-04T15:49:02;24.40;99.90
5870;DHT22;2961;47.702;9.410;2022-09-04T15:51:40;24.40;99.90
5870;DHT22;2961;47.702;9.410;2022-09-04T15:54:20;24.30;99.90
5870;DHT22;2961;47.702;9.410;2022-09-04T15:56:58;24.20;99.90
5870;DHT22;2961;47.702;9.410;2022-09-04T15:59:33;24.30;99.90
5870;DHT22;2961;47.702;9.410;2022-09-04T16:02:07;24.20;99.90
5870;DHT22;2961;47.702;9.410;2022-09-04T16:04:43;24.20;99.90
5870;DHT22;2961;47.702;9.410;2022-09-04T16:07:27;24.20;99.90
5870;DHT22;2961;47.702;9.410;2022-09-04T16:10:03;24.20;99.90
5870;DHT22;2961;47.702;9.410;2022-09-04T16:12:39;24.20;99.90
5870;DHT22;2961;47.702;9.410;2022-09-04T16:15:11;24.20;99.90
5870;DHT22;2961;47.702;9.410;2022-09-04T16:17:44;24.10;99.90
5870;DHT22;2961;47.702;9.410;2022-09-04T16:20:20;24.00;99.90
5870;DHT22;2961;47.702;9.410;2022-09-04T16:22:50;23.90;99.90
5870;DHT22;2961;47.702;9.410;2022-09-04T16:25:24;23.90;99.90
5870;DHT22;2961;47.702;9.410;2022-09-04T16:27:57;23.90;99.90
5870;DHT22;2961;47.702;9.410;2022-09-04T16:30:37;23.80;99.90
5870;DHT22;2961;47.702;9.410;2022-09-04T16:33:08;23.70;99.90
5870;DHT22;2961;47.702;9.410;2022-09-04T16:35:45;23.50;99.90
5870;DHT22;2961;47.702;9.410;2022-09-04T16:38:16;23.60;99.90
5870;DHT22;2961;47.702;9.410;2022-09-04T16:40:47;23.50;99.90
5870;DHT22;2961;47.702;9.410;2022-09-04T16:43:24;23.50;99.90
5870;DHT22;2961;47.702;9.410;2022-09-04T16:46:03;23.40;99.90
5870;DHT22;2961;47.702;9.410;2022-09-04T16:48:36;23.30;99.90
5870;DHT22;2961;47.702;9.410;2022-09-04T16:51:13;23.10;99.90
5870;DHT22;2961;47.702;9.410;2022-09-04T16:53:43;23.00;99.90
5870;DHT22;2961;47.702;9.410;2022-09-04T16:56:18;22.90;99.90
5870;DHT22;2961;47.702;9.410;2022-09-04T16:58:51;22.80;99.90
5870;DHT22;2961;47.702;9.410;2022-09-04T17:01:24;22.70;99.90
5870;DHT22;2961;47.702;9.410;2022-09-04T17:04:15;22.60;99.90
5870;DHT22;2961;47.702;9.410;2022-09-04T17:06:56;22.50;99.90
5870;DHT22;2961;47.702;9.410;2022-09-04T17:09:35;22.30;99.90
5870;DHT22;2961;47.702;9.410;2022-09-04T17:12:15;22.20;99.90
5870;DHT22;2961;47.702;9.410;2022-09-04T17:14:48;22.20;99.90
5870;DHT22;2961;47.702;9.410;2022-09-04T17:17:18;22.00;99.90
5870;DHT22;2961;47.702;9.410;2022-09-04T17:19:59;21.80;99.90
5870;DHT22;2961;47.702;9.410;2022-09-04T17:22:30;21.70;99.90
5870;DHT22;2961;47.702;9.410;2022-09-04T17:25:08;21.60;99.90
5870;DHT22;2961;47.702;9.410;2022-09-04T17:27:42;21.50;99.90
5870;DHT22;2961;47.702;9.410;2022-09-04T17:30:14;21.40;99.90
5870;DHT22;2961;47.702;9.410;2022-09-04T17:32:48;21.30;99.90
5870;DHT22;2961;47.702;9.410;2022-09-04T17:35:23;21.20;99.90
5870;DHT22;2961;47.702;9.410;2022-09-04T17:37:58;21.00;99.90
5870;DHT22;2961;47.702;9.410;2022-09-04T17:40:31;20.80;99.90
5870;DHT22;2961;47.702;9.410;2022-09-04T17:43:15;20.70;99.90
5870;DHT22;2961;47.702;9.410;2022-09-04T17:45:53;20.50;99.90
5870;DHT22;2961;47.702;9.410;2022-09-04T17:48:29;20.40;99.90
5870;DHT22;2961;47.702;9.410;2022-09-04T17:50:59;20.20;99.90
5870;DHT22;2961;47.702;9.410;2022-09-04T17:53:29;20.10;99.90
5870;DHT22;2961;47.702;9.410;2022-09-04T17:56:01;20.00;99.90
5870;DHT22;2961;47.702;9.410;2022-09-04T17:58:33;20.00;99.90
5870;DHT22;2961;47.702;9.410;2022-09-04T18:01:07;19.80;99.90
5870;DHT22;2961;47.702;9.410;2022-09-04T18:03:43;19.70;99.90
5870;DHT22;2961;47.702;9.410;2022-09-04T18:06:13;19.60;99.90
5870;DHT22;2961;47.702;9.410;2022-09-04T18:08:48;19.50;99.90
5870;DHT22;2961;47.702;9.410;2022-09-04T18:11:22;19.40;99.90
5870;DHT22;2961;47.702;9.410;2022-09-04T18:13:56;19.30;99.90
5870;DHT22;2961;47.702;9.410;2022-09-04T18:16:55;19.10;99.90
5870;DHT22;2961;47.702;9.410;2022-09-04T18:19:27;18.80;99.90
5870;DHT22;2961;47.702;9.410;2022-09-04T18:22:02;18.70;99.90
5870;DHT22;2961;47.702;9.410;2022-09-04T18:24:33;18.60;99.90
5870;DHT22;2961;47.702;9.410;2022-09-04T18:27:06;18.50;99.90
5870;DHT22;2961;47.702;9.410;2022-09-04T18:29:52;18.40;99.90
5870;DHT22;2961;47.702;9.410;2022-09-04T18:32:32;18.30;99.90
5870;DHT22;2961;47.702;9.410;2022-09-04T18:35:07;18.30;99.90
5870;DHT22;2961;47.702;9.410;2022-09-04T18:37:41;18.30;99.90
5870;DHT22;2961;47.702;9.410;2022-09-04T18:40:14;18.20;99.90
5870;DHT22;2961;47.702;9.410;2022-09-04T18:42:53;18.10;99.90
5870;DHT22;2961;47.702;9.410;2022-09-04T18:45:27;18.10;99.90
5870;DHT22;2961;47.702;9.410;2022-09-04T18:47:57;18.00;99.90
5870;DHT22;2961;47.702;9.410;2022-09-04T18:50:29;17.90;99.90
5870;DHT22;2961;47.702;9.410;2022-09-04T18:53:02;17.90;99.90
5870;DHT22;2961;47.702;9.410;2022-09-04T18:55:36;18.00;99.90
5870;DHT22;2961;47.702;9.410;2022-09-04T18:58:33;18.00;99.90
5870;DHT22;2961;47.702;9.410;2022-09-04T19:01:11;18.10;99.90